Time;durP1;ratioP1;P1;durP2;ratioP2;P2;SDS_P1;SDS_P2;PMS_P1;PMS_P2;Temp;Humidity;BMP_temperature;BMP_pressure;BME280_temperature;BME280_humidity;BME280_pressure;Samples;Min_cycle;Max_cycle;Signal;HPM_P1;HPM_P2
2023/10/03 06:23:20;;;;;;;;;5.67;5.67;;;;;;;;6203496;22;45795;-90
2023/10/03 06:25:46;;;;;;;;;4.33;4.33;;;;;;;;6190477;22;45356;-90
2023/10/03 06:28:11;;;;;;;;;2.00;2.00;;;;;;;;6191762;22;45435;-90
2023/10/03 06:30:37;;;;;;;;;3.33;3.33;;;;;;;;6218144;22;46464;-89
2023/10/03 06:33:04;;;;;;;;;3.67;3.67;;;;;;;;6218754;22;45286;-90
2023/10/03 06:35:29;;;;;;;;;3.00;3.00;;;;;;;;6191470;22;45128;-91
2023/10/03 06:37:54;;;;;;;;;2.67;2.67;;;;;;;;6219150;22;45218;-90
2023/10/03 06:40:21;;;;;;;;;1.67;1.67;;;;;;;;6217687;22;45905;-90
2023/10/03 06:42:46;;;;;;;;;1.67;1.67;;;;;;;;6215841;22;45289;-90
2023/10/03 06:45:13;;;;;;;;;0.67;0.67;;;;;;;;6191985;22;45231;-90
2023/10/03 06:47:39;;;;;;;;;1.00;1.00;;;;;;;;6192409;22;45508;-90
2023/10/03 06:50:05;;;;;;;;;2.00;1.00;;;;;;;;6218323;22;45226;-90
2023/10/03 06:52:32;;;;;;;;;1.00;1.00;;;;;;;;6216414;22;45370;-90
2023/10/03 06:54:57;;;;;;;;;1.00;1.00;;;;;;;;6190834;22;45411;-90
2023/10/03 06:57:22;;;;;;;;;1.33;1.33;;;;;;;;6213981;22;45177;-89
2023/10/03 06:59:48;;;;;;;;;1.67;1.67;;;;;;;;6214938;22;46103;-89
2023/10/03 07:02:13;;;;;;;;;1.00;1.00;;;;;;;;6214944;22;45323;-89
2023/10/03 07:04:39;;;;;;;;;2.00;2.00;;;;;;;;6189062;22;45569;-89
2023/10/03 07:07:05;;;;;;;;;1.00;1.00;;;;;;;;6218364;22;45273;-90
2023/10/03 07:09:30;;;;;;;;;1.00;1.00;;;;;;;;6187141;22;47028;-90
2023/10/03 07:11:58;;;;;;;;;1.67;1.67;;;;;;;;6214914;22;45388;-90
2023/10/03 07:14:23;;;;;;;;;2.00;2.00;;;;;;;;6215393;22;45265;-90
2023/10/03 07:16:49;;;;;;;;;0.33;0.33;;;;;;;;6214300;22;45365;-90
2023/10/03 07:19:15;;;;;;;;;2.00;2.00;;;;;;;;6210933;22;46084;-90
2023/10/03 07:21:40;;;;;;;;;0.33;0.33;;;;;;;;6186206;22;45568;-90
2023/10/03 07:24:06;;;;;;;;;1.00;1.00;;;;;;;;6242264;22;45766;-90
2023/10/03 07:26:32;;;;;;;;;0.67;0.67;;;;;;;;6245294;22;45347;-90
2023/10/03 07:28:58;;;;;;;;;3.00;3.00;;;;;;;;6216781;22;46941;-90
2023/10/03 07:31:24;;;;;;;;;2.00;2.00;;;;;;;;6220174;22;45641;-91
2023/10/03 07:33:52;;;;;;;;;1.00;1.00;;;;;;;;6244800;22;45855;-90
2023/10/03 07:36:17;;;;;;;;;1.00;1.00;;;;;;;;6244715;22;45501;-89
2023/10/03 07:38:43;;;;;;;;;1.00;1.00;;;;;;;;6244119;22;45599;-90
2023/10/03 07:41:15;;;;;;;;;2.00;1.33;;;;;;;;6244601;22;45244;-90
2023/10/03 07:43:41;;;;;;;;;1.67;1.67;;;;;;;;6246330;22;45629;-90
2023/10/03 07:46:07;;;;;;;;;1.00;1.00;;;;;;;;6220286;22;45275;-90
2023/10/03 07:48:32;;;;;;;;;1.00;1.00;;;;;;;;6244995;22;46270;-90
2023/10/03 07:50:58;;;;;;;;;0.67;0.00;;;;;;;;6243677;22;45209;-90
2023/10/03 07:53:23;;;;;;;;;1.33;1.33;;;;;;;;6246728;22;45408;-90
2023/10/03 07:55:48;;;;;;;;;1.00;1.00;;;;;;;;6249674;22;45253;-89
2023/10/03 07:58:14;;;;;;;;;1.67;1.67;;;;;;;;6249142;22;45149;-90
2023/10/03 08:00:40;;;;;;;;;1.00;1.00;;;;;;;;6248936;22;45311;-90
2023/10/03 08:03:08;;;;;;;;;1.00;1.00;;;;;;;;6248099;22;45423;-89
2023/10/03 08:05:34;;;;;;;;;2.00;2.00;;;;;;;;6220084;22;45568;-90
2023/10/03 08:08:05;;;;;;;;;1.00;1.00;;;;;;;;6247770;22;45256;-92
2023/10/03 08:10:32;;;;;;;;;1.00;1.00;;;;;;;;6247868;22;45395;-90
2023/10/03 08:12:59;;;;;;;;;1.00;1.00;;;;;;;;6222657;22;45255;-90
2023/10/03 08:15:31;;;;;;;;;0.00;0.00;;;;;;;;6222526;22;45414;-90
2023/10/03 08:17:57;;;;;;;;;0.00;0.00;;;;;;;;6250432;22;46233;-90
2023/10/03 08:20:23;;;;;;;;;0.33;0.33;;;;;;;;6249650;22;45280;-90
2023/10/03 08:22:51;;;;;;;;;1.00;1.00;;;;;;;;6249944;22;45387;-90
2023/10/03 08:25:21;;;;;;;;;0.00;0.00;;;;;;;;6250194;22;45458;-90
2023/10/03 08:27:46;;;;;;;;;0.00;0.00;;;;;;;;6250133;22;46152;-90
2023/10/03 08:30:25;;;;;;;;;1.00;1.00;;;;;;;;6249806;22;45331;-90
2023/10/03 08:32:51;;;;;;;;;0.00;0.00;;;;;;;;6250197;22;45177;-90
2023/10/03 08:35:17;;;;;;;;;0.00;0.00;;;;;;;;6250352;22;45300;-90
2023/10/03 08:37:43;;;;;;;;;0.00;0.00;;;;;;;;6250012;22;45984;-90
2023/10/03 08:40:19;;;;;;;;;1.00;1.00;;;;;;;;6222768;22;45263;-90
2023/10/03 08:42:52;;;;;;;;;0.00;0.00;;;;;;;;6222397;22;45346;-90
2023/10/03 08:45:22;;;;;;;;;1.00;1.00;;;;;;;;6250516;22;45226;-90
2023/10/03 08:47:50;;;;;;;;;0.00;0.00;;;;;;;;6249560;22;45297;-90
2023/10/03 08:50:34;;;;;;;;;0.00;0.00;;;;;;;;6249432;22;45239;-90
2023/10/03 08:53:12;;;;;;;;;1.00;1.00;;;;;;;;6250031;22;45434;-90
2023/10/03 08:55:38;;;;;;;;;1.00;1.00;;;;;;;;6250666;22;45163;-90
2023/10/03 08:58:04;;;;;;;;;0.00;0.00;;;;;;;;6250099;22;46268;-90
2023/10/03 09:00:40;;;;;;;;;1.00;1.00;;;;;;;;6248912;22;45770;-90
2023/10/03 09:03:09;;;;;;;;;1.00;1.00;;;;;;;;6250096;22;45397;-90
2023/10/03 09:05:39;;;;;;;;;1.33;0.33;;;;;;;;6221071;22;45780;-90
2023/10/03 09:08:20;;;;;;;;;0.00;0.00;;;;;;;;6222429;22;46942;-92
2023/10/03 09:10:52;;;;;;;;;0.00;0.00;;;;;;;;6249658;22;45364;-90
2023/10/03 09:13:23;;;;;;;;;0.00;0.00;;;;;;;;6250734;22;45311;-90
2023/10/03 09:15:49;;;;;;;;;0.00;0.00;;;;;;;;6222995;22;45329;-90
2023/10/03 09:18:21;;;;;;;;;2.00;1.00;;;;;;;;6248348;22;46873;-90
2023/10/03 09:20:47;;;;;;;;;0.33;0.33;;;;;;;;6221693;22;45236;-91
2023/10/03 09:23:17;;;;;;;;;0.33;0.33;;;;;;;;6249885;22;45406;-90
2023/10/03 09:25:42;;;;;;;;;1.00;0.00;;;;;;;;6249707;22;45386;-90
2023/10/03 09:28:08;;;;;;;;;0.00;0.00;;;;;;;;6249829;22;45540;-90
2023/10/03 09:30:40;;;;;;;;;0.00;0.00;;;;;;;;6222115;22;45746;-90
2023/10/03 09:33:11;;;;;;;;;0.00;0.00;;;;;;;;6250102;22;45307;-90
2023/10/03 09:35:39;;;;;;;;;0.67;0.00;;;;;;;;6221559;22;45419;-90
2023/10/03 09:38:08;;;;;;;;;0.00;0.00;;;;;;;;6222167;22;46383;-90
2023/10/03 09:40:50;;;;;;;;;0.67;0.00;;;;;;;;6220692;22;45347;-90
2023/10/03 09:43:27;;;;;;;;;0.00;0.00;;;;;;;;6221959;22;45315;-91
2023/10/03 09:45:56;;;;;;;;;0.00;0.00;;;;;;;;6249714;22;45253;-90
2023/10/03 09:48:24;;;;;;;;;0.00;0.00;;;;;;;;6249638;22;45332;-91
2023/10/03 09:50:53;;;;;;;;;0.00;0.00;;;;;;;;6221229;22;45412;-91
2023/10/03 09:53:19;;;;;;;;;0.00;0.00;;;;;;;;6221981;22;45320;-90
2023/10/03 09:55:50;;;;;;;;;0.00;0.00;;;;;;;;6221554;22;45252;-91
2023/10/03 09:58:24;;;;;;;;;0.00;0.00;;;;;;;;6248182;22;45460;-90
2023/10/03 10:00:53;;;;;;;;;0.00;0.00;;;;;;;;6221722;22;45234;-91
2023/10/03 10:03:26;;;;;;;;;0.00;0.00;;;;;;;;6222830;22;45319;-90
2023/10/03 10:06:12;;;;;;;;;0.00;0.00;;;;;;;;6247797;22;45389;-90
2023/10/03 10:08:46;;;;;;;;;0.00;0.00;;;;;;;;6221689;22;47832;-90
2023/10/03 10:11:12;;;;;;;;;0.00;0.00;;;;;;;;6221304;22;45255;-90
2023/10/03 10:13:41;;;;;;;;;0.00;0.00;;;;;;;;6222497;22;45319;-91
2023/10/03 10:18:43;;;;;;;;;0.00;0.00;;;;;;;;6249763;22;45371;-90
2023/10/03 10:21:25;;;;;;;;;0.00;0.00;;;;;;;;6221996;22;45240;-90
2023/10/03 10:24:28;;;;;;;;;0.00;0.00;;;;;;;;6249176;22;45245;-90
2023/10/03 10:26:53;;;;;;;;;1.00;1.00;;;;;;;;6232354;22;45312;-90
2023/10/03 10:29:19;;;;;;;;;1.00;1.00;;;;;;;;6247608;22;48295;-90
2023/10/03 10:31:49;;;;;;;;;2.00;2.00;;;;;;;;6247780;22;45215;-90
2023/10/03 10:34:20;;;;;;;;;2.00;2.00;;;;;;;;6249699;22;45398;-90
2023/10/03 10:37:14;;;;;;;;;1.00;1.00;;;;;;;;6220759;22;45288;-90
2023/10/03 10:39:52;;;;;;;;;0.00;0.00;;;;;;;;6220502;22;47053;-90
2023/10/03 10:42:20;;;;;;;;;0.00;0.00;;;;;;;;6221381;22;45838;-90
2023/10/03 10:45:13;;;;;;;;;0.00;0.00;;;;;;;;6222748;22;45357;-90
2023/10/03 10:47:45;;;;;;;;;0.33;0.33;;;;;;;;6222479;22;45517;-90
2023/10/03 10:50:11;;;;;;;;;0.00;0.00;;;;;;;;6248472;22;45362;-90
2023/10/03 10:52:49;;;;;;;;;0.00;0.00;;;;;;;;6248861;22;45319;-90
2023/10/03 10:55:15;;;;;;;;;0.00;0.00;;;;;;;;6221443;22;45410;-90
2023/10/03 10:57:40;;;;;;;;;0.00;0.00;;;;;;;;6221342;22;45505;-90
2023/10/03 11:00:21;;;;;;;;;0.00;0.00;;;;;;;;6249908;22;45359;-88
2023/10/03 11:02:46;;;;;;;;;0.00;0.00;;;;;;;;6221921;22;45240;-90
2023/10/03 11:05:12;;;;;;;;;0.00;0.00;;;;;;;;6249240;22;45195;-87
2023/10/03 11:07:39;;;;;;;;;0.00;0.00;;;;;;;;6249634;22;45312;-88
2023/10/03 11:10:07;;;;;;;;;0.00;0.00;;;;;;;;6221705;22;47044;-89
2023/10/03 11:12:32;;;;;;;;;2.00;2.00;;;;;;;;6247640;22;45366;-90
2023/10/03 11:14:58;;;;;;;;;1.00;1.00;;;;;;;;6249854;22;45145;-88
2023/10/03 11:17:23;;;;;;;;;0.00;0.00;;;;;;;;6249439;22;45371;-88
2023/10/03 11:19:50;;;;;;;;;0.00;0.00;;;;;;;;6221227;22;46774;-88
2023/10/03 11:22:17;;;;;;;;;0.00;0.00;;;;;;;;6220605;22;45267;-88
2023/10/03 11:24:45;;;;;;;;;0.00;0.00;;;;;;;;6248304;22;45286;-91
2023/10/03 11:27:23;;;;;;;;;0.00;0.00;;;;;;;;6247648;22;45516;-89
2023/10/03 11:29:48;;;;;;;;;0.00;0.00;;;;;;;;6222758;22;46994;-87
2023/10/03 11:32:24;;;;;;;;;0.00;0.00;;;;;;;;6250940;22;45312;-87
2023/10/03 11:34:50;;;;;;;;;0.00;0.00;;;;;;;;6250640;22;45467;-89
2023/10/03 11:37:33;;;;;;;;;0.00;0.00;;;;;;;;6250157;22;45498;-87
2023/10/03 11:40:20;;;;;;;;;0.00;0.00;;;;;;;;6250144;22;45516;-89
2023/10/03 11:42:58;;;;;;;;;0.00;0.00;;;;;;;;6249644;22;45248;-87
2023/10/03 11:45:29;;;;;;;;;0.33;0.33;;;;;;;;6223483;22;45192;-87
2023/10/03 11:47:58;;;;;;;;;0.00;0.00;;;;;;;;6223224;22;45263;-88
2023/10/03 11:50:25;;;;;;;;;0.00;0.00;;;;;;;;6222679;22;47113;-87
2023/10/03 11:52:50;;;;;;;;;0.00;0.00;;;;;;;;6223310;22;45327;-88
2023/10/03 11:55:15;;;;;;;;;0.00;0.00;;;;;;;;6250568;22;45327;-88
2023/10/03 11:57:42;;;;;;;;;0.00;0.00;;;;;;;;6250183;22;45498;-88
2023/10/03 12:00:14;;;;;;;;;0.00;0.00;;;;;;;;6250255;22;46181;-88
2023/10/03 12:02:40;;;;;;;;;0.33;0.33;;;;;;;;6223000;22;45445;-88
2023/10/03 12:05:05;;;;;;;;;0.00;0.00;;;;;;;;6250674;22;45605;-88
2023/10/03 12:07:31;;;;;;;;;0.00;0.00;;;;;;;;6247964;22;45438;-87
2023/10/03 12:09:56;;;;;;;;;1.00;1.00;;;;;;;;6249841;22;45309;-88
2023/10/03 12:12:27;;;;;;;;;0.00;0.00;;;;;;;;6250843;22;45351;-87
2023/10/03 12:14:54;;;;;;;;;0.00;0.00;;;;;;;;6249965;22;45090;-90
2023/10/03 12:17:20;;;;;;;;;1.00;1.00;;;;;;;;6222280;22;45369;-89
2023/10/03 12:19:47;;;;;;;;;0.00;0.00;;;;;;;;6247901;22;46948;-88
2023/10/03 12:22:13;;;;;;;;;1.00;1.00;;;;;;;;6250073;22;45306;-88
2023/10/03 12:24:38;;;;;;;;;1.00;1.00;;;;;;;;6223060;22;45385;-88
2023/10/03 12:27:05;;;;;;;;;1.00;1.00;;;;;;;;6250590;22;45366;-89
2023/10/03 12:29:32;;;;;;;;;0.00;0.00;;;;;;;;6250136;22;45346;-88
2023/10/03 12:32:08;;;;;;;;;0.00;0.00;;;;;;;;6250351;22;45133;-90
2023/10/03 12:34:34;;;;;;;;;0.33;0.33;;;;;;;;6222462;22;45241;-89
2023/10/03 12:37:03;;;;;;;;;1.00;1.00;;;;;;;;6249664;22;45237;-89
2023/10/03 12:39:31;;;;;;;;;0.00;0.00;;;;;;;;6222353;22;46832;-89
2023/10/03 12:41:56;;;;;;;;;0.00;0.00;;;;;;;;6250218;22;45397;-89
2023/10/03 12:44:21;;;;;;;;;1.00;1.00;;;;;;;;6250806;22;45161;-89
2023/10/03 12:46:49;;;;;;;;;0.00;0.00;;;;;;;;6249989;22;45103;-90
2023/10/03 12:49:14;;;;;;;;;1.00;1.00;;;;;;;;6221654;22;47099;-87
2023/10/03 12:51:43;;;;;;;;;0.67;0.67;;;;;;;;6250262;22;45276;-89
2023/10/03 12:54:08;;;;;;;;;0.33;0.33;;;;;;;;6223057;22;45387;-90
2023/10/03 12:56:33;;;;;;;;;0.00;0.00;;;;;;;;6222856;22;45357;-89
2023/10/03 12:59:35;;;;;;;;;0.33;0.33;;;;;;;;6248160;22;45902;-90
2023/10/03 13:02:00;;;;;;;;;1.00;1.00;;;;;;;;6249939;22;45466;-88
2023/10/03 13:04:27;;;;;;;;;1.00;1.00;;;;;;;;6250358;22;45359;-89
2023/10/03 13:06:53;;;;;;;;;0.67;0.67;;;;;;;;6249359;22;45383;-89
2023/10/03 13:09:18;;;;;;;;;0.00;0.00;;;;;;;;6222032;22;47124;-89
2023/10/03 13:11:43;;;;;;;;;0.00;0.00;;;;;;;;6250431;22;45318;-89
2023/10/03 13:14:09;;;;;;;;;0.00;0.00;;;;;;;;6223168;22;45370;-89
2023/10/03 13:16:34;;;;;;;;;0.00;0.00;;;;;;;;6249634;22;45362;-89
2023/10/03 13:19:01;;;;;;;;;1.00;1.00;;;;;;;;6249713;22;46368;-89
2023/10/03 13:21:26;;;;;;;;;0.67;0.67;;;;;;;;6247688;22;45130;-89
2023/10/03 13:23:55;;;;;;;;;1.00;1.00;;;;;;;;6248576;22;45146;-90
2023/10/03 13:26:20;;;;;;;;;0.00;0.00;;;;;;;;6222671;22;45431;-90
2023/10/03 13:28:47;;;;;;;;;0.00;0.00;;;;;;;;6222803;22;47133;-90
2023/10/03 13:31:12;;;;;;;;;2.00;1.00;;;;;;;;6222696;22;45269;-90
2023/10/03 13:33:38;;;;;;;;;1.00;1.00;;;;;;;;6250447;22;45327;-90
2023/10/03 13:36:04;;;;;;;;;1.00;1.00;;;;;;;;6247848;22;45405;-90
2023/10/03 13:38:30;;;;;;;;;1.00;1.00;;;;;;;;6222454;22;46890;-90
2023/10/03 13:40:55;;;;;;;;;1.00;1.00;;;;;;;;6222768;22;45186;-91
2023/10/03 13:43:27;;;;;;;;;0.67;0.67;;;;;;;;6223188;22;45079;-90
2023/10/03 13:45:54;;;;;;;;;1.67;1.67;;;;;;;;6250252;22;45333;-90
2023/10/03 13:48:20;;;;;;;;;0.33;0.33;;;;;;;;6222615;22;47012;-90
2023/10/03 13:50:45;;;;;;;;;2.00;2.00;;;;;;;;6249286;22;45219;-90
2023/10/03 13:53:13;;;;;;;;;2.00;2.00;;;;;;;;6249360;22;45324;-90
2023/10/03 13:55:39;;;;;;;;;0.00;0.00;;;;;;;;6249409;22;45308;-90
2023/10/03 13:58:04;;;;;;;;;1.00;1.00;;;;;;;;6247719;22;45268;-90
2023/10/03 14:00:35;;;;;;;;;1.00;1.00;;;;;;;;6221083;22;45472;-90
2023/10/03 14:03:05;;;;;;;;;1.00;1.00;;;;;;;;6244595;22;45653;-90
2023/10/03 14:05:31;;;;;;;;;0.67;0.67;;;;;;;;6221201;22;45461;-91
2023/10/03 14:07:57;;;;;;;;;0.33;0.33;;;;;;;;6248682;22;45397;-90
2023/10/03 14:10:23;;;;;;;;;0.67;0.67;;;;;;;;6249191;22;45254;-91
2023/10/03 14:12:48;;;;;;;;;1.00;1.00;;;;;;;;6248744;22;45406;-91
2023/10/03 14:15:14;;;;;;;;;1.67;1.67;;;;;;;;6248855;22;45802;-90
2023/10/03 14:17:42;;;;;;;;;0.67;0.67;;;;;;;;6222043;22;47885;-90
2023/10/03 14:20:10;;;;;;;;;1.00;1.00;;;;;;;;6216917;22;45891;-91
2023/10/03 14:22:36;;;;;;;;;0.33;0.33;;;;;;;;6249046;22;45343;-91
2023/10/03 14:25:03;;;;;;;;;1.00;1.00;;;;;;;;6246761;22;45327;-91
2023/10/03 14:27:29;;;;;;;;;1.00;1.00;;;;;;;;6247542;22;45370;-91
2023/10/03 14:29:54;;;;;;;;;2.33;2.33;;;;;;;;6249205;22;45299;-90
2023/10/03 14:32:21;;;;;;;;;0.33;0.33;;;;;;;;6249571;22;45177;-90
2023/10/03 14:34:50;;;;;;;;;1.00;1.00;;;;;;;;6250178;22;45351;-91
2023/10/03 14:37:16;;;;;;;;;1.00;1.00;;;;;;;;6248816;22;45604;-91
2023/10/03 14:39:41;;;;;;;;;1.33;1.33;;;;;;;;6247785;22;45289;-91
2023/10/03 14:42:06;;;;;;;;;1.00;1.00;;;;;;;;6250193;22;45340;-91
2023/10/03 14:44:55;;;;;;;;;1.00;1.00;;;;;;;;6222033;22;45535;-92
2023/10/03 14:47:20;;;;;;;;;0.00;0.00;;;;;;;;6211584;22;48023;-92
2023/10/03 14:49:52;;;;;;;;;1.00;1.00;;;;;;;;6249277;22;45294;-93
2023/10/03 14:52:29;;;;;;;;;1.00;1.00;;;;;;;;6222356;22;45245;-93
2023/10/03 14:54:54;;;;;;;;;1.00;1.00;;;;;;;;6247762;22;45411;-91
2023/10/03 14:57:20;;;;;;;;;1.00;1.00;;;;;;;;6249422;22;45426;-90
2023/10/03 14:59:45;;;;;;;;;1.00;1.00;;;;;;;;6220790;22;45316;-91
2023/10/03 15:02:20;;;;;;;;;1.00;1.00;;;;;;;;6249738;22;45174;-92
2023/10/03 15:04:51;;;;;;;;;1.00;1.00;;;;;;;;6249557;22;45224;-95
2023/10/03 15:07:20;;;;;;;;;1.33;1.33;;;;;;;;6221515;22;46998;-90
2023/10/03 15:09:45;;;;;;;;;0.67;0.67;;;;;;;;6221420;22;45354;-90
2023/10/03 15:12:11;;;;;;;;;1.00;1.00;;;;;;;;6248097;22;45413;-90
2023/10/03 15:14:36;;;;;;;;;0.00;0.00;;;;;;;;6250143;22;45427;-90
2023/10/03 15:17:03;;;;;;;;;0.33;0.33;;;;;;;;6247401;22;45287;-89
2023/10/03 15:19:29;;;;;;;;;0.33;0.33;;;;;;;;6248681;22;45240;-89
2023/10/03 15:21:55;;;;;;;;;0.67;0.67;;;;;;;;6249260;22;45158;-89
2023/10/03 15:24:20;;;;;;;;;0.00;0.00;;;;;;;;6249662;22;45531;-90
2023/10/03 15:26:45;;;;;;;;;0.67;0.67;;;;;;;;6249219;22;46613;-90
2023/10/03 15:29:11;;;;;;;;;1.33;1.33;;;;;;;;6248976;22;45209;-90
2023/10/03 15:31:36;;;;;;;;;0.67;0.67;;;;;;;;6249811;22;45445;-90
2023/10/03 15:34:04;;;;;;;;;0.00;0.00;;;;;;;;6249641;22;45488;-90
2023/10/03 15:36:32;;;;;;;;;0.00;0.00;;;;;;;;6220809;22;46984;-90
2023/10/03 15:38:57;;;;;;;;;1.00;1.00;;;;;;;;6220968;22;45260;-90
2023/10/03 15:41:23;;;;;;;;;1.00;1.00;;;;;;;;6249358;22;45301;-90
2023/10/03 15:43:48;;;;;;;;;1.00;1.00;;;;;;;;6221019;22;45542;-90
2023/10/03 15:46:16;;;;;;;;;0.00;0.00;;;;;;;;6248669;22;46248;-90
2023/10/03 15:48:41;;;;;;;;;1.00;1.00;;;;;;;;6249133;22;45433;-90
2023/10/03 15:51:12;;;;;;;;;0.67;0.67;;;;;;;;6221694;22;45696;-90
2023/10/03 15:53:38;;;;;;;;;1.00;1.00;;;;;;;;6248458;22;45213;-90
2023/10/03 15:56:09;;;;;;;;;1.00;1.00;;;;;;;;6219298;22;47676;-90
2023/10/03 15:58:38;;;;;;;;;0.67;0.67;;;;;;;;6248313;22;45374;-91
2023/10/03 16:01:03;;;;;;;;;0.67;0.67;;;;;;;;6221176;22;45209;-89
2023/10/03 16:03:28;;;;;;;;;1.00;1.00;;;;;;;;6246871;22;45185;-90
2023/10/03 16:05:55;;;;;;;;;0.33;0.33;;;;;;;;6244516;22;46126;-89
2023/10/03 16:08:21;;;;;;;;;0.67;0.67;;;;;;;;6246610;22;45363;-89
